Time;durP1;ratioP1;P1;durP2;ratioP2;P2;SDS_P1;SDS_P2;PMS_P1;PMS_P2;Temp;Humidity;BMP_temperature;BMP_pressure;BME280_temperature;BME280_humidity;BME280_pressure;Samples;Min_cycle;Max_cycle;Signal;HPM_P1;HPM_P2
2023/04/21 00:00:15;;;;;;;;;19.00;18.00;;;;;9.97;79.34;99511.88;6278578;20;2491954;-53
2023/04/21 00:02:45;;;;;;;;;25.00;17.50;;;;;10.00;78.90;99505.44;6282385;20;2834746;-50
2023/04/21 00:05:14;;;;;;;;;22.50;20.00;;;;;9.94;79.19;99498.66;6278533;20;2828438;-50
2023/04/21 00:07:42;;;;;;;;;21.00;18.00;;;;;9.87;79.51;99492.81;6278187;20;2500288;-52
2023/04/21 00:10:11;;;;;;;;;22.00;18.50;;;;;9.88;79.64;99494.53;6279864;20;2837775;-51
2023/04/21 00:12:40;;;;;;;;;15.50;15.50;;;;;9.91;79.46;99498.84;6274181;20;2500302;-52
2023/04/21 00:15:08;;;;;;;;;19.00;17.00;;;;;9.83;80.07;99495.78;6278682;20;2496158;-55
2023/04/21 00:17:38;;;;;;;;;15.33;15.00;;;;;9.84;80.07;99492.97;6279740;20;3540923;-49
2023/04/21 00:20:09;;;;;;;;;18.00;16.67;;;;;9.77;80.18;99494.34;6276414;20;3560679;-49
2023/04/21 00:22:37;;;;;;;;;19.50;14.50;;;;;9.59;81.06;99487.41;6284284;20;2818045;-54
2023/04/21 00:25:06;;;;;;;;;14.00;13.33;;;;;9.54;81.72;99489.50;6281868;20;3528384;-52
2023/04/21 00:27:35;;;;;;;;;16.67;13.67;;;;;9.58;81.31;99491.88;6312824;20;3554436;-55
2023/04/21 00:30:05;;;;;;;;;18.00;15.67;;;;;9.59;81.44;99487.41;6283909;20;3549236;-54
2023/04/21 00:32:33;;;;;;;;;20.00;14.50;;;;;9.48;81.78;99490.75;6281477;20;2812914;-53
2023/04/21 00:35:01;;;;;;;;;22.50;17.00;;;;;9.42;82.07;99486.59;6283455;20;2833704;-54
2023/04/21 00:37:30;;;;;;;;;17.00;16.00;;;;;9.40;82.67;99490.31;6281369;20;3559663;-55
2023/04/21 00:39:58;;;;;;;;;17.67;15.33;;;;;9.31;83.02;99483.69;6313987;20;3544035;-54
2023/04/21 00:42:27;;;;;;;;;17.00;16.33;;;;;9.07;83.97;99483.34;6283803;20;3558667;-49
2023/04/21 00:44:56;;;;;;;;;16.00;16.00;;;;;9.32;83.84;99482.78;6283881;20;3550633;-51
2023/04/21 00:47:24;;;;;;;;;16.00;15.00;;;;;9.29;83.74;99482.91;6282559;20;2801321;-52
2023/04/21 00:49:52;;;;;;;;;19.00;17.50;;;;;9.15;84.58;99486.44;6284013;20;2500279;-57
2023/04/21 00:52:20;;;;;;;;;22.50;18.00;;;;;9.14;85.06;99482.03;6280162;20;2500393;-50
2023/04/21 00:54:48;;;;;;;;;24.00;20.00;;;;;9.02;86.10;99483.59;6280788;20;2500295;-50
2023/04/21 00:57:16;;;;;;;;;21.50;17.00;;;;;9.14;85.26;99487.41;6279982;20;2500323;-53
2023/04/21 00:59:44;;;;;;;;;18.00;18.00;;;;;9.04;84.91;99485.34;6288000;20;2496113;-51
2023/04/21 01:02:15;;;;;;;;;23.00;19.50;;;;;9.00;85.30;99482.84;6308925;20;2488230;-50
2023/04/21 01:04:44;;;;;;;;;18.00;18.00;;;;;8.95;85.33;99487.63;6282837;20;2500362;-51
2023/04/21 01:07:13;;;;;;;;;23.50;19.50;;;;;9.26;83.78;99485.78;6282664;20;2835759;-51
2023/04/21 01:09:42;;;;;;;;;18.67;18.67;;;;;9.28;83.67;99489.25;6282228;20;3565859;-54
2023/04/21 01:12:12;;;;;;;;;19.50;18.00;;;;;9.31;82.86;99488.19;6281968;20;2830461;-55
2023/04/21 01:14:40;;;;;;;;;17.00;15.00;;;;;9.37;82.54;99486.03;6285049;20;2806571;-53
2023/04/21 01:17:09;;;;;;;;;15.50;15.50;;;;;9.27;82.50;99487.53;6284968;20;2810754;-51
2023/04/21 01:19:42;;;;;;;;;16.33;14.00;;;;;9.28;83.20;99488.41;6281547;20;3531662;-51
2023/04/21 01:22:12;;;;;;;;;22.00;17.00;;;;;9.27;82.79;99478.59;6274952;20;2491949;-53
2023/04/21 01:24:48;;;;;;;;;17.67;15.00;;;;;9.29;82.61;99477.56;6282819;20;3530587;-51
2023/04/21 01:27:19;;;;;;;;;16.33;16.00;;;;;9.14;83.79;99475.81;6279628;20;3553429;-52
2023/04/21 01:29:51;;;;;;;;;23.00;19.50;;;;;9.11;83.96;99479.53;6281322;20;2500341;-50
2023/04/21 01:32:25;;;;;;;;;20.00;17.50;;;;;8.95;84.32;99476.00;6278590;20;2480510;-51
2023/04/21 01:34:56;;;;;;;;;21.67;18.00;;;;;8.92;84.36;99471.69;6281690;20;3559607;-53
2023/04/21 01:37:32;;;;;;;;;18.50;18.00;;;;;8.91;84.69;99474.47;6283969;20;2498130;-52
2023/04/21 01:40:06;;;;;;;;;20.00;20.00;;;;;8.76;86.50;99471.72;6283299;20;2830466;-50
2023/04/21 01:42:42;;;;;;;;;19.00;18.00;;;;;8.76;85.79;99470.88;6281428;20;3560727;-53
2023/04/21 01:45:11;;;;;;;;;20.00;20.00;;;;;8.88;85.32;99472.84;6280693;20;2500342;-50
2023/04/21 01:47:39;;;;;;;;;22.00;18.50;;;;;8.72;85.21;99464.84;6281901;20;2844044;-53
2023/04/21 01:50:08;;;;;;;;;20.67;18.67;;;;;8.96;84.88;99473.25;6281171;20;3571116;-49
2023/04/21 01:52:37;;;;;;;;;19.33;16.67;;;;;8.84;85.57;99479.31;6278907;20;3560738;-52
2023/04/21 01:55:06;;;;;;;;;20.50;19.00;;;;;8.60;85.90;99476.25;6281491;20;2500263;-51
2023/04/21 01:57:35;;;;;;;;;21.50;19.50;;;;;8.82;85.46;99475.88;6282512;20;2827356;-51
2023/04/21 02:00:04;;;;;;;;;19.50;18.00;;;;;8.94;84.50;99475.16;6283388;20;2823330;-53
2023/04/21 02:02:33;;;;;;;;;16.00;15.00;;;;;8.96;84.47;99475.94;6280893;20;2805501;-51
2023/04/21 02:05:02;;;;;;;;;23.33;18.33;;;;;8.91;84.26;99472.66;6279640;20;3573250;-50
2023/04/21 02:07:31;;;;;;;;;22.00;17.00;;;;;8.90;84.57;99472.75;6281577;20;3558584;-47
2023/04/21 02:10:00;;;;;;;;;19.67;16.33;;;;;8.95;84.16;99481.38;6281328;20;3549285;-51
2023/04/21 02:12:29;;;;;;;;;16.50;15.00;;;;;8.83;84.32;99474.94;6311622;20;2821202;-53
2023/04/21 02:14:57;;;;;;;;;19.00;18.00;;;;;9.02;84.54;99475.56;6278359;20;2494088;-49
2023/04/21 02:17:25;;;;;;;;;18.50;17.50;;;;;8.98;83.57;99476.72;6282772;20;2819132;-48
2023/04/21 02:19:53;;;;;;;;;16.00;14.33;;;;;8.91;84.17;99474.47;6281129;20;3524303;-51
2023/04/21 02:22:21;;;;;;;;;14.50;13.50;;;;;8.94;83.45;99477.84;6279415;20;2790976;-51
2023/04/21 02:24:50;;;;;;;;;17.50;17.00;;;;;8.91;83.81;99478.03;6283145;20;2823252;-52
2023/04/21 02:27:18;;;;;;;;;23.50;19.50;;;;;8.82;83.83;99475.00;6283196;20;2828572;-52
2023/04/21 02:29:46;;;;;;;;;16.33;15.00;;;;;8.90;84.33;99484.34;6282531;20;3549193;-52
2023/04/21 02:32:14;;;;;;;;;22.50;19.50;;;;;8.89;84.63;99487.94;6281103;20;2843407;-53
2023/04/21 02:34:53;;;;;;;;;17.33;14.00;;;;;8.66;85.66;99491.06;6283102;20;3534743;-49
2023/04/21 02:37:22;;;;;;;;;15.67;14.00;;;;;8.85;84.41;99497.13;6308999;20;3546237;-51
2023/04/21 02:39:50;;;;;;;;;22.00;16.00;;;;;8.80;83.82;99493.84;6280031;20;2500265;-51
2023/04/21 02:42:18;;;;;;;;;24.00;19.00;;;;;8.53;85.86;99496.25;6279095;20;2500482;-52
2023/04/21 02:44:47;;;;;;;;;18.00;18.00;;;;;8.54;86.20;99492.66;6280136;20;3556648;-49
2023/04/21 02:47:16;;;;;;;;;18.33;17.67;;;;;8.73;84.86;99495.16;6308881;20;3553482;-52
2023/04/21 02:49:45;;;;;;;;;16.33;13.33;;;;;8.64;85.06;99499.22;6278386;20;3542065;-50
2023/04/21 02:52:13;;;;;;;;;18.33;15.67;;;;;8.71;84.13;99510.41;6310764;20;3540897;-52
2023/04/21 02:54:42;;;;;;;;;16.00;16.00;;;;;8.78;84.18;99506.44;6310767;20;3544037;-50
2023/04/21 02:57:10;;;;;;;;;18.00;16.00;;;;;8.83;83.00;99509.72;6310686;20;2491924;-52
2023/04/21 02:59:38;;;;;;;;;20.00;17.00;;;;;8.83;83.32;99509.72;6287498;20;2496143;-51
2023/04/21 03:02:06;;;;;;;;;18.00;17.00;;;;;8.79;83.56;99517.09;6279518;20;2498389;-50
2023/04/21 03:04:35;;;;;;;;;18.67;15.33;;;;;8.95;82.70;99501.00;6278378;20;3542965;-49
2023/04/21 03:07:03;;;;;;;;;20.50;14.50;;;;;8.88;82.69;99510.34;6311207;20;2492049;-52
2023/04/21 03:09:30;;;;;;;;;16.00;13.50;;;;;8.91;82.63;99506.63;6281236;20;2813812;-51
2023/04/21 03:11:58;;;;;;;;;19.00;17.00;;;;;8.94;82.51;99503.75;6278221;20;2500328;-55
2023/04/21 03:14:26;;;;;;;;;17.50;16.50;;;;;8.94;82.03;99511.78;6278879;20;2498757;-55
2023/04/21 03:16:55;;;;;;;;;18.00;16.00;;;;;9.01;81.16;99508.66;6281027;20;3540897;-55
2023/04/21 03:19:23;;;;;;;;;19.00;14.00;;;;;9.01;81.00;99524.75;6280251;20;2824244;-54
2023/04/21 03:21:51;;;;;;;;;15.00;15.00;;;;;9.09;80.80;99521.63;6280025;20;3520160;-51
2023/04/21 03:24:20;;;;;;;;;19.50;18.00;;;;;8.95;81.02;99522.44;6311196;20;2491973;-49
2023/04/21 03:26:49;;;;;;;;;20.33;17.33;;;;;8.99;81.08;99520.41;6277999;20;3557603;-49
2023/04/21 03:29:18;;;;;;;;;16.33;14.33;;;;;8.89;81.56;99521.91;6276797;20;3536754;-53
2023/04/21 03:31:47;;;;;;;;;17.67;14.67;;;;;8.86;81.28;99522.94;6308942;20;3552425;-54
2023/04/21 03:34:15;;;;;;;;;18.00;14.00;;;;;8.88;80.84;99528.22;6279889;20;2800290;-50
2023/04/21 03:36:43;;;;;;;;;16.00;15.00;;;;;8.89;80.44;99524.56;6282868;20;2818106;-51
2023/04/21 03:39:11;;;;;;;;;17.50;16.00;;;;;8.86;80.18;99530.09;6283587;20;2819010;-50
2023/04/21 03:41:47;;;;;;;;;17.00;16.00;;;;;8.89;79.73;99525.44;6281520;20;2823591;-50
2023/04/21 03:44:15;;;;;;;;;20.00;16.50;;;;;8.88;79.69;99526.41;6277842;20;2491926;-48
2023/04/21 03:46:43;;;;;;;;;18.33;14.00;;;;;8.92;79.31;99524.41;6277975;20;3542969;-48
2023/04/21 03:49:11;;;;;;;;;18.00;16.50;;;;;8.83;80.03;99525.78;6280670;20;2817963;-53
2023/04/21 03:51:40;;;;;;;;;20.33;17.00;;;;;8.60;82.25;99529.75;6281108;20;3561962;-52
2023/04/21 03:54:08;;;;;;;;;19.00;17.00;;;;;8.35;83.49;99530.25;6275668;20;2496159;-54
2023/04/21 03:56:36;;;;;;;;;18.50;17.50;;;;;8.21;84.72;99532.78;6280946;20;2489831;-55
2023/04/21 03:59:05;;;;;;;;;17.00;15.50;;;;;8.41;83.45;99534.41;6284125;20;2500398;-50
2023/04/21 04:01:35;;;;;;;;;20.00;18.00;;;;;8.28;84.45;99532.38;6279290;20;2496265;-53
2023/04/21 04:04:03;;;;;;;;;19.00;18.00;;;;;8.00;85.62;99530.31;6285383;20;2500315;-51
2023/04/21 04:06:32;;;;;;;;;26.00;20.00;;;;;8.14;86.12;99522.44;6284123;20;2840637;-52
2023/04/21 04:09:03;;;;;;;;;18.50;18.00;;;;;8.32;83.94;99535.72;6286328;20;2828471;-50
2023/04/21 04:11:31;;;;;;;;;14.00;14.00;;;;;8.60;81.87;99534.25;6286552;20;2803538;-50
2023/04/21 04:13:59;;;;;;;;;15.00;13.00;;;;;8.82;79.01;99531.22;6283446;20;2816998;-49
2023/04/21 04:16:28;;;;;;;;;14.67;12.67;;;;;8.91;77.94;99539.59;6279343;20;3543159;-51
2023/04/21 04:18:57;;;;;;;;;15.33;13.00;;;;;9.11;76.90;99541.16;6282450;20;3546167;-54
2023/04/21 04:21:27;;;;;;;;;22.33;17.67;;;;;9.27;75.81;99537.53;6314846;20;3556590;-48
2023/04/21 04:23:55;;;;;;;;;18.00;14.00;;;;;9.37;75.58;99539.63;6314789;20;2809771;-52
2023/04/21 04:26:24;;;;;;;;;13.00;12.00;;;;;9.51;75.39;99540.63;6284143;20;2789955;-51
2023/04/21 04:28:55;;;;;;;;;21.33;16.33;;;;;9.50;74.93;99542.41;6282522;20;3548186;-53
2023/04/21 04:31:24;;;;;;;;;27.50;20.00;;;;;9.74;73.95;99553.50;6282276;20;2845151;-52
2023/04/21 04:33:54;;;;;;;;;39.67;33.33;;;;;9.74;74.12;99550.84;6280627;20;2859813;-52
2023/04/21 04:36:27;;;;;;;;;21.50;21.50;;;;;10.52;72.63;99554.03;6310680;20;2838816;-51
2023/04/21 04:38:57;;;;;;;;;16.33;15.00;;;;;15.03;54.63;99558.16;6283605;20;3541930;-48
2023/04/21 04:41:29;;;;;;;;;73.00;61.33;;;;;16.73;46.72;99574.44;6284305;20;3633589;-53
2023/04/21 04:43:58;;;;;;;;;45.00;36.00;;;;;16.53;46.50;99570.75;6317117;20;3593016;-47
2023/04/21 04:46:28;;;;;;;;;52.50;44.00;;;;;16.58;47.21;99574.78;6278727;20;2855616;-52
2023/04/21 04:48:57;;;;;;;;;30.67;27.00;;;;;15.13;49.76;99563.69;6282351;20;3598185;-50
2023/04/21 04:51:26;;;;;;;;;15.33;14.00;;;;;15.09;49.47;99573.91;6283071;20;3538803;-51
2023/04/21 04:53:55;;;;;;;;;31.33;30.00;;;;;14.39;53.25;99569.63;6283413;20;3597166;-52
2023/04/21 04:56:24;;;;;;;;;53.00;43.00;;;;;14.40;53.04;99576.75;6280541;20;3605556;-50
2023/04/21 04:58:53;;;;;;;;;23.33;22.00;;;;;13.44;56.00;99570.72;6316481;20;3580519;-49
2023/04/21 05:01:21;;;;;;;;;21.00;18.50;;;;;13.04;58.43;99573.66;6280697;20;2491929;-49
2023/04/21 05:03:52;;;;;;;;;44.33;36.33;;;;;12.87;59.61;99578.41;6281861;20;2850369;-48
2023/04/21 05:06:22;;;;;;;;;53.33;42.33;;;;;12.57;61.18;99572.56;6313451;20;3606758;-50
2023/04/21 05:08:50;;;;;;;;;17.00;17.00;;;;;12.90;60.09;99574.66;6275126;20;2494047;-50
2023/04/21 05:11:19;;;;;;;;;22.50;19.00;;;;;14.13;56.06;99587.88;6281827;20;2844141;-47
2023/04/21 05:13:48;;;;;;;;;20.50;20.50;;;;;15.54;51.29;99579.19;6282122;20;2838827;-53
2023/04/21 05:16:17;;;;;;;;;75.67;53.00;;;;;16.96;47.08;99583.25;6278498;20;3636056;-48
2023/04/21 05:18:49;;;;;;;;;28.33;25.33;;;;;17.67;43.67;99581.25;6312590;20;3596161;-49
2023/04/21 05:21:26;;;;;;;;;23.00;20.00;;;;;15.78;48.51;99583.56;6280472;20;2849329;-47
2023/04/21 05:23:58;;;;;;;;;13.50;13.50;;;;;14.97;51.43;99580.31;6287586;20;2779480;-48
2023/04/21 05:26:28;;;;;;;;;19.00;18.00;;;;;13.59;56.42;99570.41;6285381;20;3577322;-50
2023/04/21 05:28:57;;;;;;;;;18.00;16.00;;;;;14.03;55.09;99573.34;6312438;20;2827482;-49
2023/04/21 05:31:27;;;;;;;;;14.60;11.00;;;;;14.28;53.51;99573.16;6306573;20;2794915;-49
2023/04/21 05:33:57;;;;;;;;;26.00;25.33;;;;;16.50;47.83;99571.88;6280456;20;2847301;-48
2023/04/21 05:36:26;;;;;;;;;11.67;11.00;;;;;16.13;47.57;99566.13;6311517;20;3507577;-50
2023/04/21 05:38:54;;;;;;;;;14.00;11.00;;;;;15.50;48.71;99566.03;6315282;20;2804579;-51
2023/04/21 05:41:23;;;;;;;;;22.00;18.50;;;;;18.67;42.85;99581.78;6281853;20;2843051;-47
2023/04/21 05:43:51;;;;;;;;;19.00;18.00;;;;;18.17;42.72;99583.81;6281003;20;2492038;-47
2023/04/21 05:46:20;;;;;;;;;13.67;12.00;;;;;17.60;43.28;99577.38;6281998;20;3530540;-49
2023/04/21 05:48:49;;;;;;;;;15.33;11.00;;;;;17.65;44.49;99585.94;6314316;20;3524238;-52
2023/04/21 05:51:17;;;;;;;;;16.33;14.00;;;;;16.08;48.24;99584.63;6313354;20;3526339;-51
2023/04/21 05:53:46;;;;;;;;;18.67;14.33;;;;;15.61;49.72;99584.06;6278934;20;3539873;-53
2023/04/21 05:56:15;;;;;;;;;15.00;12.67;;;;;15.92;50.05;99575.09;6277053;20;2794115;-49
2023/04/21 05:58:42;;;;;;;;;15.00;12.00;;;;;15.93;49.39;99578.66;6316625;20;2799255;-52
2023/04/21 06:01:12;;;;;;;;;12.33;10.00;;;;;14.95;52.43;99579.56;6277629;20;3509778;-50
2023/04/21 06:03:39;;;;;;;;;10.00;9.00;;;;;14.81;54.44;99577.16;6313328;20;2753448;-53
2023/04/21 06:06:10;;;;;;;;;17.00;11.00;;;;;15.78;51.33;99573.59;6282323;20;2802393;-50
2023/04/21 06:08:39;;;;;;;;;13.00;13.00;;;;;14.95;52.38;99582.28;6284175;20;3523201;-53
2023/04/21 06:11:06;;;;;;;;;12.50;11.50;;;;;15.33;52.65;99581.00;6315399;20;2785682;-51
2023/04/21 06:13:34;;;;;;;;;2.50;0.50;;;;;14.96;53.25;99575.91;6287771;20;2738847;-51
2023/04/21 06:16:05;;;;;;;;;11.50;9.00;;;;;15.62;50.02;99575.00;6281425;20;2772214;-48
2023/04/21 06:18:35;;;;;;;;;12.60;11.40;;;;;15.27;51.39;99576.94;6309864;20;2798232;-48
2023/04/21 06:21:04;;;;;;;;;13.33;11.33;;;;;16.22;50.44;99576.19;6283156;20;2789042;-48
2023/04/21 06:23:32;;;;;;;;;10.50;10.50;;;;;15.71;48.99;99572.38;6312578;20;2796226;-52
2023/04/21 06:26:05;;;;;;;;;8.00;8.00;;;;;16.32;48.16;99574.34;6286245;20;2733673;-51
2023/04/21 06:28:35;;;;;;;;;11.50;8.00;;;;;16.72;47.10;99579.00;6283693;20;2773227;-46
2023/04/21 06:31:04;;;;;;;;;16.67;11.67;;;;;17.32;46.31;99579.94;6285176;20;3523171;-48
2023/04/21 06:33:35;;;;;;;;;21.00;14.50;;;;;20.29;40.15;99579.13;6313166;20;2479455;-48
2023/04/21 06:36:05;;;;;;;;;8.33;8.33;;;;;17.58;44.67;99573.09;6280228;20;2750385;-55
2023/04/21 06:38:34;;;;;;;;;7.60;6.60;;;;;20.87;39.48;99587.69;6339405;20;2748208;-50
2023/04/21 06:41:04;;;;;;;;;18.00;16.50;;;;;21.73;36.75;99592.97;6315346;20;2825709;-52
2023/04/21 06:43:33;;;;;;;;;22.67;21.00;;;;;24.44;32.89;99601.03;6288160;20;3584714;-48
2023/04/21 06:46:02;;;;;;;;;9.40;9.40;;;;;26.68;28.95;99605.91;6304519;20;2743029;-51
2023/04/21 06:48:30;;;;;;;;;16.00;12.50;;;;;23.76;31.69;99595.41;6282086;20;2491975;-54
2023/04/21 06:51:01;;;;;;;;;11.67;10.33;;;;;22.22;34.20;99586.69;6287438;20;2789935;-53
2023/04/21 06:53:30;;;;;;;;;15.67;12.00;;;;;24.47;30.94;99595.22;6319241;20;2796132;-55
2023/04/21 06:55:59;;;;;;;;;13.67;7.33;;;;;26.07;28.48;99600.91;6311620;20;2783634;-51
2023/04/21 06:58:27;;;;;;;;;12.00;9.00;;;;;25.58;28.18;99593.38;6312237;20;2762831;-57
2023/04/21 07:00:57;;;;;;;;;11.00;7.00;;;;;25.78;28.08;99601.88;6339975;20;2759627;-56
2023/04/21 07:03:25;;;;;;;;;19.67;18.00;;;;;27.71;25.79;99606.88;6289071;20;3567991;-55
2023/04/21 07:05:54;;;;;;;;;17.33;11.00;;;;;25.40;27.65;99607.53;6283538;20;2802350;-52
2023/04/21 07:08:24;;;;;;;;;3.67;3.67;;;;;27.22;26.19;99613.44;6316165;20;2737807;-51
2023/04/21 07:10:52;;;;;;;;;6.33;6.33;;;;;27.03;26.32;99609.50;6315540;20;2740984;-48
2023/04/21 07:13:21;;;;;;;;;7.33;6.00;;;;;26.79;26.52;99621.88;6315156;20;2744071;-48
2023/04/21 07:15:50;;;;;;;;;9.33;7.00;;;;;27.51;25.62;99617.81;6312747;20;2740937;-49
2023/04/21 07:18:18;;;;;;;;;10.33;6.67;;;;;27.89;25.58;99611.00;6319979;20;2758666;-50
2023/04/21 07:20:48;;;;;;;;;5.80;5.00;;;;;25.07;28.75;99605.19;6340307;20;2745107;-47
2023/04/21 07:23:18;;;;;;;;;9.00;7.00;;;;;26.55;26.55;99605.81;6309769;20;2754448;-48
2023/04/21 07:25:47;;;;;;;;;10.40;8.40;;;;;27.10;26.25;99615.06;6305099;20;2775298;-46
2023/04/21 07:28:17;;;;;;;;;10.60;7.00;;;;;27.45;26.62;99606.78;6308987;20;2754551;-48
2023/04/21 07:30:46;;;;;;;;;8.33;7.00;;;;;24.64;29.93;99602.22;6292494;20;2730487;-48
2023/04/21 07:33:15;;;;;;;;;6.67;4.00;;;;;19.75;37.37;99581.09;6325605;20;2748211;-47
2023/04/21 07:35:44;;;;;;;;;7.40;7.00;;;;;18.58;39.45;99578.13;6347584;20;2756539;-47
2023/04/21 07:38:14;;;;;;;;;8.60;6.20;;;;;18.60;41.00;99571.53;6319260;20;2742997;-45
2023/04/21 07:40:42;;;;;;;;;2.50;2.50;;;;;18.12;41.19;99586.09;6326271;20;2745114;-51
2023/04/21 07:43:10;;;;;;;;;9.00;9.00;;;;;18.46;40.63;99580.16;6294912;20;2741967;-46
2023/04/21 07:45:38;;;;;;;;;15.67;9.00;;;;;19.35;41.93;99582.34;6294739;20;2787910;-49
2023/04/21 07:48:08;;;;;;;;;9.20;6.80;;;;;18.72;39.98;99580.38;6352538;20;2756549;-49
2023/04/21 07:50:36;;;;;;;;;11.00;6.50;;;;;18.68;40.96;99573.50;6294818;20;2766922;-48
2023/04/21 07:53:05;;;;;;;;;7.00;7.00;;;;;19.87;38.95;99582.53;6293774;20;2735719;-47
2023/04/21 07:55:36;;;;;;;;;6.60;5.40;;;;;19.43;37.94;99578.84;6348317;20;2748229;-51
2023/04/21 07:58:05;;;;;;;;;7.00;6.00;;;;;18.76;37.75;99570.06;6320496;20;2739840;-46
2023/04/21 08:00:35;;;;;;;;;10.40;6.40;;;;;18.63;39.07;99575.81;6349137;20;2763892;-47
2023/04/21 08:03:03;;;;;;;;;3.50;3.50;;;;;17.98;39.08;99571.13;6296624;20;2752474;-48
2023/04/21 08:05:31;;;;;;;;;9.00;5.00;;;;;18.15;38.94;99569.50;6296050;20;2753446;-46
2023/04/21 08:08:04;;;;;;;;;11.00;8.00;;;;;18.09;38.49;99571.94;6295575;20;2760724;-48
2023/04/21 08:10:32;;;;;;;;;11.00;8.00;;;;;18.41;37.63;99568.88;6295643;20;2764938;-47
2023/04/21 08:13:05;;;;;;;;;12.40;8.60;;;;;18.72;38.19;99568.59;6316933;20;2771272;-50
2023/04/21 08:15:34;;;;;;;;;9.00;7.50;;;;;18.41;38.88;99561.56;6290996;20;2754919;-46
2023/04/21 08:18:01;;;;;;;;;9.00;8.00;;;;;18.56;38.43;99567.41;6297372;20;2731662;-47
2023/04/21 08:20:31;;;;;;;;;7.00;4.80;;;;;19.11;37.80;99557.56;6319467;20;2749366;-45
2023/04/21 08:23:00;;;;;;;;;8.00;7.67;;;;;19.01;38.74;99563.06;6323731;20;2737812;-49
2023/04/21 08:25:28;;;;;;;;;9.00;8.00;;;;;19.30;37.77;99565.63;6322359;20;2762993;-48
2023/04/21 08:28:00;;;;;;;;;11.00;8.20;;;;;19.28;36.81;99559.47;6313463;20;2751323;-47
2023/04/21 08:30:28;;;;;;;;;7.50;7.50;;;;;18.83;36.61;99565.75;6297700;20;2742998;-48
2023/04/21 08:32:58;;;;;;;;;6.40;4.80;;;;;19.94;37.02;99567.28;6320781;20;2749239;-52
2023/04/21 08:35:26;;;;;;;;;7.00;5.50;;;;;18.92;35.76;99559.38;6300668;20;2733625;-51
2023/04/21 08:37:56;;;;;;;;;6.00;4.40;;;;;18.45;37.84;99556.69;6318143;20;2751304;-48
2023/04/21 08:40:35;;;;;;;;;9.00;9.00;;;;;19.64;36.97;99562.19;6290591;20;2758740;-48
2023/04/21 08:43:08;;;;;;;;;8.50;7.50;;;;;19.15;35.55;99567.16;6322291;20;2744159;-48
2023/04/21 08:45:36;;;;;;;;;8.00;8.00;;;;;19.72;34.73;99560.47;6285381;20;2748259;-46
2023/04/21 08:48:05;;;;;;;;;5.00;5.00;;;;;18.74;36.01;99550.28;6285885;20;2745188;-49
2023/04/21 08:50:35;;;;;;;;;8.50;7.50;;;;;18.64;37.03;99558.47;6286309;20;2753458;-46
2023/04/21 08:53:02;;;;;;;;;13.00;11.00;;;;;19.16;37.44;99566.13;6286914;20;2788911;-47
2023/04/21 08:55:32;;;;;;;;;13.00;9.00;;;;;19.78;36.45;99555.41;6286510;20;2772127;-47
2023/04/21 08:58:05;;;;;;;;;7.00;6.60;;;;;19.71;37.83;99557.88;6311999;20;2746180;-49
2023/04/21 09:00:40;;;;;;;;;11.33;10.33;;;;;20.14;36.43;99558.91;6314956;20;3512835;-46
2023/04/21 09:03:09;;;;;;;;;13.67;13.67;;;;;20.66;35.46;99560.81;6318200;20;2794165;-50
2023/04/21 09:06:05;;;;;;;;;17.67;14.00;;;;;20.21;36.38;99546.38;6319774;20;3534664;-50
2023/04/21 09:08:41;;;;;;;;;12.33;12.00;;;;;19.32;36.28;99543.69;6313229;20;3528425;-49
2023/04/21 09:11:14;;;;;;;;;14.67;13.67;;;;;19.75;37.20;99534.78;6314074;20;3528512;-45
2023/04/21 09:13:44;;;;;;;;;10.40;9.40;;;;;20.57;36.57;99549.88;6311707;20;2787812;-46
2023/04/21 09:16:20;;;;;;;;;19.00;17.00;;;;;20.57;36.04;99546.28;6284929;20;2833662;-47
2023/04/21 09:18:50;;;;;;;;;7.00;5.67;;;;;20.24;35.07;99548.75;6282200;20;2747149;-46
2023/04/21 09:21:19;;;;;;;;;12.67;12.67;;;;;20.78;35.29;99540.44;6318388;20;2805506;-45
2023/04/21 09:23:51;;;;;;;;;16.00;15.00;;;;;20.83;35.04;99543.53;6311585;20;2491955;-46
2023/04/21 09:26:22;;;;;;;;;20.67;19.67;;;;;20.60;36.01;99540.50;6283976;20;2840907;-48
2023/04/21 09:28:52;;;;;;;;;13.00;13.00;;;;;20.69;35.78;99539.50;6317828;20;3525393;-46
2023/04/21 09:31:27;;;;;;;;;6.00;5.00;;;;;19.72;36.48;99533.22;6320312;20;2750334;-47
2023/04/21 09:33:57;;;;;;;;;18.00;16.00;;;;;20.33;37.06;99531.47;6287095;20;2492001;-46
2023/04/21 09:36:30;;;;;;;;;15.33;15.33;;;;;20.71;36.51;99540.22;6283921;20;3543512;-44
2023/04/21 09:39:02;;;;;;;;;18.00;15.00;;;;;20.79;36.97;99529.31;6293230;20;2487879;-48
2023/04/21 09:41:34;;;;;;;;;19.67;17.33;;;;;20.72;35.65;99527.41;6281481;20;3566982;-46
2023/04/21 09:44:05;;;;;;;;;16.00;16.00;;;;;21.52;35.39;99525.13;6283101;20;2494192;-46
2023/04/21 09:46:35;;;;;;;;;13.00;12.00;;;;;20.63;35.76;99518.34;6314612;20;3520116;-46
2023/04/21 09:49:05;;;;;;;;;15.00;13.33;;;;;20.88;36.00;99512.97;6314030;20;3532635;-47
2023/04/21 09:51:34;;;;;;;;;16.00;13.50;;;;;20.67;36.15;99521.59;6312181;20;2487821;-45
2023/04/21 09:54:31;;;;;;;;;9.50;9.50;;;;;20.68;34.96;99520.59;6289997;20;2766946;-46
2023/04/21 09:57:03;;;;;;;;;11.67;11.67;;;;;20.53;36.12;99512.97;6284934;20;2791994;-47
2023/04/21 09:59:46;;;;;;;;;6.00;5.00;;;;;21.20;35.32;99513.09;6319584;20;2729421;-46
2023/04/21 10:02:19;;;;;;;;;16.00;14.00;;;;;21.34;34.20;99513.47;6283516;20;2483651;-47
2023/04/21 10:04:47;;;;;;;;;10.33;7.67;;;;;20.51;35.45;99505.97;6311257;20;2773349;-45
2023/04/21 10:07:16;;;;;;;;;19.00;16.50;;;;;20.45;36.33;99498.44;6311416;20;2831531;-51
2023/04/21 10:09:55;;;;;;;;;21.00;16.33;;;;;20.28;35.86;99498.38;6286065;20;3562798;-48
2023/04/21 10:12:26;;;;;;;;;6.00;5.50;;;;;19.63;37.31;99495.97;6284552;20;2736813;-49
2023/04/21 10:14:57;;;;;;;;;4.00;4.00;;;;;18.89;37.62;99493.56;6286268;20;2730513;-46
2023/04/21 10:17:26;;;;;;;;;15.50;14.50;;;;;20.08;37.59;99492.25;6286215;20;2489901;-48
2023/04/21 10:19:58;;;;;;;;;16.67;16.33;;;;;19.68;36.13;99484.66;6282978;20;3564946;-49
2023/04/21 10:22:32;;;;;;;;;16.00;15.00;;;;;20.03;35.38;99493.75;6311766;20;2483611;-46
2023/04/21 10:25:03;;;;;;;;;14.50;14.50;;;;;20.99;35.08;99507.25;6282472;20;2496112;-46
2023/04/21 10:27:40;;;;;;;;;20.00;18.50;;;;;20.51;35.04;99504.13;6280947;20;2831678;-47
2023/04/21 10:30:21;;;;;;;;;14.00;13.33;;;;;21.37;32.30;99494.00;6280966;20;3530538;-48
2023/04/21 10:33:04;;;;;;;;;11.67;11.67;;;;;21.62;33.28;99498.50;6313394;20;3526408;-51
2023/04/21 10:36:01;;;;;;;;;18.33;13.67;;;;;20.89;33.24;99485.53;6281801;20;2485758;-48
2023/04/21 10:38:42;;;;;;;;;16.00;13.67;;;;;21.17;33.08;99488.88;6315054;20;3536828;-47
2023/04/21 10:41:29;;;;;;;;;8.20;6.80;;;;;20.97;34.85;99493.75;6339410;20;2743337;-45
2023/04/21 10:44:10;;;;;;;;;9.00;9.00;;;;;20.79;34.48;99491.13;6317746;20;2748168;-47
2023/04/21 10:46:59;;;;;;;;;14.00;14.00;;;;;20.81;33.25;99489.09;6282540;20;3527437;-44
2023/04/21 10:49:30;;;;;;;;;13.33;11.00;;;;;21.13;32.39;99489.34;6282209;20;3538886;-47
2023/04/21 10:51:58;;;;;;;;;16.00;16.00;;;;;21.25;32.54;99477.94;6282766;20;2829463;-49
2023/04/21 10:54:48;;;;;;;;;18.00;16.50;;;;;21.85;33.18;99482.28;6282994;20;2827349;-46
2023/04/21 10:57:19;;;;;;;;;17.00;16.00;;;;;21.13;33.19;99482.00;6285364;20;3445843;-46
2023/04/21 10:59:48;;;;;;;;;14.67;14.67;;;;;20.60;33.80;99472.31;6316429;20;3534683;-52
2023/04/21 11:02:18;;;;;;;;;15.67;15.67;;;;;21.17;34.34;99467.03;6310628;20;2494420;-52
2023/04/21 11:04:52;;;;;;;;;16.00;15.00;;;;;20.86;33.67;99472.22;6311833;20;3552448;-49
2023/04/21 11:07:24;;;;;;;;;11.00;9.67;;;;;20.44;33.29;99464.03;6289081;20;2786722;-50
2023/04/21 11:10:06;;;;;;;;;13.33;13.33;;;;;20.86;32.23;99466.78;6319707;20;3527390;-51
2023/04/21 11:12:40;;;;;;;;;7.60;5.20;;;;;20.56;32.80;99476.38;6339102;20;2740885;-48
2023/04/21 11:15:13;;;;;;;;;10.50;10.50;;;;;20.63;32.76;99469.25;6314204;20;2483715;-54
2023/04/21 11:17:45;;;;;;;;;19.00;16.50;;;;;21.01;32.46;99472.41;6280831;20;2833621;-52
2023/04/21 11:20:13;;;;;;;;;14.50;14.50;;;;;21.34;31.09;99458.84;6275762;20;2492101;-52